BLL weather

Billund Airport
Billund, South Denmark, Denmark

Public forecast

Using degrees Celsius for public forecast. Weather courtesy of forecast.io.

METAR (pilot weather report)

Retrieved 2019/03/26 13:20 UTC (33 minutes ago):

EKBI 261320Z AUTO 29013KT 9999 FEW043/// SCT050/// BKN055/// 08/02 Q1023

TAF (pilot weather forecast)

Retrieved 2019/03/26 12:00 UTC (2 hours ago):

TAF EKBI 261047Z 2612/2712 29012KT 9999 BKN020 TEMPO 2618/2623 4000 -RADZ BKN008 BECMG 2623/2702 3000 -RADZ BR BKN005 BECMG 2702/2704 0500 FG VV001 TEMPO 2704/2709 2000 BCFG BR BKN003 BECMG 2709/2711 5000 BR SCT005 BKN010 TEMPO 2711/2712 3000 BKN005